KCGF/CGF METAR and TAF weather

Enter ICAO airport designator
Station Type Date Time Source
KCGF METAR 2019/10/16 19:45 UTC NOAA

KCGF 161945Z 23015G24KT 10SM OVC023 09/05 A2961


Station Type Date Time Source
KCGF Decoded METAR 2019/10/16 19:45 UTC NOAA

Cleveland / Cuyahoga, OH, United States (KCGF) 41-34N 081-29W
Oct 16, 2019 - 03:45 PM EDT / 2019.10.16 1945 UTC
Wind: from the SW (230 degrees) at 17 MPH (15 KT) gusting to 28 MPH (24 KT):0
Visibility: 10 mile(s):0
Sky conditions: overcast
Temperature: 48 F (9 C)
Dew Point: 41 F (5 C)
Relative Humidity: 75%
Pressure (altimeter): 29.61 in. Hg (1002 hPa)
ob: KCGF 161945Z 23015G24KT 10SM OVC023 09/05 A2961
cycle: 20

Station Type Date Time Source
KCGF TAF 2016/07/19 12:36 UTC NOAA

TAF KCGF 191136Z 1912/2012 VRB05KT P6SM SCT080
FM191400 33008KT P6SM SCT040
FM191900 35008KT P6SM SCT060
FM200000 04003KT P6SM SCT080
FM200700 14003KT P6SM SKC

Example: see airport list